Time;durP1;ratioP1;P1;durP2;ratioP2;P2;SDS_P1;SDS_P2;PMS_P1;PMS_P2;Temp;Humidity;BMP_temperature;BMP_pressure;BME280_temperature;BME280_humidity;BME280_pressure;Samples;Min_cycle;Max_cycle;Signal;HPM_P1;HPM_P2
2023/09/21 00:00:19;;;;;;;0.47;0.47;;;;;;;;;;7391218;19;21323;-91
2023/09/21 00:02:50;;;;;;;1.58;0.47;;;;;;;;;;7392720;19;20333;-92
2023/09/21 00:05:20;;;;;;;0.85;0.75;;;;;;;;;;7391034;19;20336;-91
2023/09/21 00:07:47;;;;;;;0.80;0.80;;;;;;;;;;7390251;19;20343;-91
2023/09/21 00:10:19;;;;;;;0.70;0.70;;;;;;;;;;7391462;19;20373;-90
2023/09/21 00:12:51;;;;;;;0.40;0.40;;;;;;;;;;7391398;19;20345;-91
2023/09/21 00:15:19;;;;;;;0.60;0.60;;;;;;;;;;7390721;19;20352;-92
2023/09/21 00:17:53;;;;;;;0.40;0.40;;;;;;;;;;7390771;19;20352;-91
2023/09/21 00:20:35;;;;;;;0.40;0.40;;;;;;;;;;7385944;19;20349;-91
2023/09/21 00:23:07;;;;;;;0.60;0.60;;;;;;;;;;7391537;19;20375;-91
2023/09/21 00:25:37;;;;;;;0.40;0.40;;;;;;;;;;7390234;19;20349;-92
2023/09/21 00:28:14;;;;;;;0.50;0.50;;;;;;;;;;7391509;19;20675;-91
2023/09/21 00:30:41;;;;;;;9.10;1.00;;;;;;;;;;7390869;19;20336;-91
2023/09/21 00:33:08;;;;;;;0.55;0.55;;;;;;;;;;7390338;19;20356;-91
2023/09/21 00:35:42;;;;;;;0.50;0.50;;;;;;;;;;7390153;19;20368;-90
2023/09/21 00:38:09;;;;;;;1.10;1.00;;;;;;;;;;7391460;19;20427;-91
2023/09/21 00:40:40;;;;;;;0.40;0.40;;;;;;;;;;7390437;19;20377;-92
2023/09/21 00:43:08;;;;;;;0.50;0.50;;;;;;;;;;7390309;19;20383;-91
2023/09/21 00:45:36;;;;;;;0.55;0.55;;;;;;;;;;7391008;19;20489;-91
2023/09/21 00:48:13;;;;;;;0.40;0.40;;;;;;;;;;7390686;19;20898;-91
2023/09/21 00:50:44;;;;;;;0.53;0.53;;;;;;;;;;7395548;19;20365;-91
2023/09/21 00:53:20;;;;;;;0.40;0.40;;;;;;;;;;7396330;19;20371;-91
2023/09/21 00:55:51;;;;;;;0.80;0.80;;;;;;;;;;7397465;19;20801;-91
2023/09/21 00:58:23;;;;;;;0.68;0.68;;;;;;;;;;7398598;19;20371;-91
2023/09/21 01:00:50;;;;;;;0.30;0.30;;;;;;;;;;7397792;19;20359;-91
2023/09/21 01:03:17;;;;;;;0.55;0.55;;;;;;;;;;7396435;19;20372;-91
2023/09/21 01:05:45;;;;;;;0.60;0.60;;;;;;;;;;7395003;19;20352;-91
2023/09/21 01:08:18;;;;;;;0.40;0.40;;;;;;;;;;7392285;19;20377;-92
2023/09/21 01:10:49;;;;;;;1.70;0.85;;;;;;;;;;7392498;19;20414;-91
2023/09/21 01:13:17;;;;;;;0.40;0.40;;;;;;;;;;7393508;19;20430;-92
2023/09/21 01:15:46;;;;;;;0.50;0.50;;;;;;;;;;7392714;19;20344;-91
2023/09/21 01:18:16;;;;;;;0.57;0.57;;;;;;;;;;7394029;19;20352;-92
2023/09/21 01:20:44;;;;;;;0.80;0.80;;;;;;;;;;7392069;19;20748;-91
2023/09/21 01:23:19;;;;;;;0.40;0.40;;;;;;;;;;7393610;19;20372;-91
2023/09/21 01:25:50;;;;;;;0.50;0.50;;;;;;;;;;7392854;19;20376;-91
2023/09/21 01:28:22;;;;;;;0.80;0.60;;;;;;;;;;7392949;19;20347;-92
2023/09/21 01:30:56;;;;;;;0.65;0.65;;;;;;;;;;7392544;19;20998;-91
2023/09/21 01:33:24;;;;;;;0.50;0.50;;;;;;;;;;7392933;19;20336;-92
2023/09/21 01:35:51;;;;;;;0.60;0.60;;;;;;;;;;7392739;19;20959;-91
2023/09/21 01:38:19;;;;;;;0.60;0.60;;;;;;;;;;7389892;19;20344;-92
2023/09/21 01:40:51;;;;;;;1.80;0.75;;;;;;;;;;7391860;19;20361;-91
2023/09/21 01:43:29;;;;;;;0.50;0.43;;;;;;;;;;7392567;19;20345;-92
2023/09/21 01:46:01;;;;;;;0.70;0.70;;;;;;;;;;7392557;19;20341;-91
2023/09/21 01:48:28;;;;;;;0.70;0.70;;;;;;;;;;7393829;19;20324;-92
2023/09/21 01:50:57;;;;;;;0.80;0.80;;;;;;;;;;7392595;19;20705;-92
2023/09/21 01:53:28;;;;;;;1.00;1.00;;;;;;;;;;7394728;19;20385;-91
2023/09/21 01:55:55;;;;;;;0.98;0.63;;;;;;;;;;7394050;19;20357;-91
2023/09/21 01:58:23;;;;;;;0.60;0.60;;;;;;;;;;7394590;19;20348;-90
2023/09/21 02:00:50;;;;;;;0.80;0.80;;;;;;;;;;7392015;19;20348;-91
